createdAt,value
2023-05-08T00:00:39.335Z,147680.66
2023-05-08T00:01:41.520Z,147675.81
2023-05-08T00:02:43.744Z,147675.81
2023-05-08T00:03:46.070Z,147691.53
2023-05-08T00:04:48.384Z,147700.03
2023-05-08T00:05:50.788Z,147680.66
2023-05-08T00:06:53.088Z,147673.41
2023-05-08T00:08:01.201Z,147685.50
2023-05-08T00:09:03.480Z,147666.16
2023-05-08T00:10:06.831Z,147695.16
2023-05-08T00:11:09.025Z,147670.97
2023-05-08T00:12:11.150Z,147673.41
2023-05-08T00:13:13.320Z,147664.94
2023-05-08T00:14:15.523Z,147649.19
2023-05-08T00:15:17.674Z,147635.88
2023-05-08T00:16:19.883Z,147650.38
2023-05-08T00:17:22.540Z,147643.13
2023-05-08T00:18:24.938Z,147656.44
2023-05-08T00:19:27.080Z,147661.25
2023-05-08T00:20:29.292Z,147663.69
2023-05-08T00:21:31.418Z,147672.19
2023-05-08T00:22:33.569Z,147668.56
2023-05-08T00:23:35.726Z,147644.34
2023-05-08T00:24:37.890Z,147650.38
2023-05-08T00:25:40.022Z,147641.94
2023-05-08T00:26:44.294Z,147634.69
2023-05-08T00:27:46.807Z,147623.75
2023-05-08T00:28:48.916Z,147615.28
2023-05-08T00:29:51.043Z,147605.63
2023-05-08T00:30:53.818Z,147612.88
2023-05-08T00:31:56.343Z,147605.63
2023-05-08T00:32:58.644Z,147609.25
2023-05-08T00:34:01.174Z,147604.41
2023-05-08T00:35:03.495Z,147595.91
2023-05-08T00:36:06.379Z,147605.63
2023-05-08T00:37:08.847Z,147595.91
2023-05-08T00:38:11.419Z,147581.41
2023-05-08T00:39:13.664Z,147598.31
2023-05-08T00:40:16.163Z,147593.50
2023-05-08T00:41:18.385Z,147576.56
2023-05-08T00:42:20.888Z,147591.06
2023-05-08T00:43:28.133Z,147560.81
2023-05-08T00:44:30.275Z,147569.31
2023-05-08T00:45:36.603Z,147608.03
2023-05-08T00:46:39.643Z,147585.03
2023-05-08T00:47:42.462Z,147570.53
2023-05-08T00:48:45.989Z,147586.25
2023-05-08T00:49:48.789Z,147569.31
2023-05-08T00:50:52.812Z,147593.50
2023-05-08T00:51:56.016Z,147593.50
2023-05-08T00:53:00.408Z,147582.63
2023-05-08T00:54:03.549Z,147571.75
2023-05-08T00:55:06.969Z,147566.88
2023-05-08T00:56:15.279Z,147579.00
2023-05-08T00:57:18.689Z,147554.78
2023-05-08T00:58:21.791Z,147535.41
2023-05-08T00:59:25.041Z,147545.06
2023-05-08T01:00:27.472Z,147520.84
2023-05-08T01:01:30.192Z,147525.69
2023-05-08T01:02:32.949Z,147520.84
2023-05-08T01:03:36.536Z,147529.31
2023-05-08T01:04:40.232Z,147525.69
2023-05-08T01:05:43.767Z,147539.03
2023-05-08T01:06:45.937Z,147505.16
2023-05-08T01:07:48.189Z,147494.22
2023-05-08T01:08:51.158Z,147486.97
2023-05-08T01:09:53.331Z,147495.44
2023-05-08T01:11:10.808Z,147540.22
2023-05-08T01:12:36.281Z,147525.69
2023-05-08T01:13:57.015Z,147564.44
2023-05-08T01:15:08.517Z,147549.91
2023-05-08T01:16:37.249Z,147530.53
2023-05-08T01:18:05.291Z,147528.09
2023-05-08T01:19:31.279Z,147528.09
2023-05-08T01:20:52.034Z,147539.03
2023-05-08T01:22:04.273Z,147513.59
2023-05-08T01:23:37.295Z,147511.19
2023-05-08T01:25:07.411Z,147528.09
2023-05-08T01:26:37.735Z,147495.44
2023-05-08T01:27:58.408Z,147508.78
2023-05-08T01:29:19.552Z,147506.34
2023-05-08T01:30:27.630Z,147430.09
2023-05-08T01:31:44.709Z,147484.56
2023-05-08T01:32:56.156Z,147470.06
2023-05-08T01:34:26.613Z,147465.19
2023-05-08T01:35:45.327Z,147462.78
2023-05-08T01:36:59.245Z,147465.19
2023-05-08T01:38:10.754Z,147443.44
2023-05-08T01:39:21.844Z,147450.69
2023-05-08T01:41:01.802Z,147465.19
2023-05-08T01:42:26.501Z,147462.78
2023-05-08T01:44:04.149Z,147449.47
2023-05-08T01:45:31.016Z,147447.06
2023-05-08T01:46:34.412Z,147412.00
2023-05-08T01:47:38.580Z,147414.41
2023-05-08T01:48:54.830Z,147438.63
2023-05-08T01:50:21.952Z,147424.06
2023-05-08T01:51:27.876Z,147399.88
2023-05-08T01:52:41.707Z,147410.78
2023-05-08T01:53:49.658Z,147384.16
2023-05-08T01:54:58.779Z,147420.44
2023-05-08T01:56:08.115Z,147421.66
2023-05-08T01:57:12.136Z,147399.88
2023-05-08T01:58:14.973Z,147390.19
2023-05-08T01:59:20.838Z,147405.94
2023-05-08T02:00:25.486Z,147399.88
2023-05-08T02:01:29.435Z,147382.97
2023-05-08T02:02:34.396Z,147393.81
2023-05-08T02:03:38.520Z,147387.78
2023-05-08T02:04:44.303Z,147414.41
2023-05-08T02:05:48.631Z,147404.75
2023-05-08T02:06:52.185Z,147415.63
2023-05-08T02:07:56.614Z,147404.75
2023-05-08T02:09:01.770Z,147407.16
2023-05-08T02:10:06.338Z,147424.06
2023-05-08T02:11:11.599Z,147436.16
2023-05-08T02:12:16.461Z,147428.91
2023-05-08T02:13:22.018Z,147436.16
2023-05-08T02:14:26.234Z,147409.56
2023-05-08T02:15:29.467Z,147409.56
2023-05-08T02:16:31.824Z,147392.63
2023-05-08T02:17:37.897Z,147416.81
2023-05-08T02:18:44.661Z,147412.00
2023-05-08T02:19:48.129Z,147404.75
2023-05-08T02:20:52.103Z,147419.25
2023-05-08T02:21:55.409Z,147410.78
2023-05-08T02:22:57.691Z,147392.63
2023-05-08T02:24:01.864Z,147399.88
2023-05-08T02:25:04.567Z,147397.44
2023-05-08T02:26:09.494Z,147402.28
2023-05-08T02:27:12.582Z,147385.38
2023-05-08T02:28:18.942Z,147416.81
2023-05-08T02:29:23.201Z,147416.81
2023-05-08T02:30:26.370Z,147419.25
2023-05-08T02:31:30.080Z,147407.16
2023-05-08T02:32:33.180Z,147395.03
2023-05-08T02:33:37.025Z,147399.88
2023-05-08T02:34:45.208Z,147392.63
2023-05-08T02:35:55.499Z,147390.19
2023-05-08T02:36:59.731Z,147361.19
2023-05-08T02:38:02.859Z,147369.63
2023-05-08T02:39:08.288Z,147381.75
2023-05-08T02:40:13.088Z,147374.50
2023-05-08T02:41:18.325Z,147390.19
2023-05-08T02:42:21.189Z,147356.34
2023-05-08T02:43:24.064Z,147358.75
2023-05-08T02:44:27.236Z,147363.59
2023-05-08T02:45:48.007Z,147389.00
2023-05-08T02:46:57.930Z,147409.56
2023-05-08T02:48:09.237Z,147382.97
2023-05-08T02:49:24.223Z,147349.09
2023-05-08T02:50:38.366Z,147375.72
2023-05-08T02:52:05.747Z,147363.59
2023-05-08T02:53:12.588Z,147376.91
2023-05-08T02:54:39.214Z,147356.34
2023-05-08T02:55:52.973Z,147378.13
2023-05-08T02:57:14.450Z,147359.97
2023-05-08T02:58:22.549Z,147341.84
2023-05-08T02:59:39.509Z,147358.75
2023-05-08T03:00:47.522Z,147334.56
2023-05-08T03:02:14.087Z,147347.88
2023-05-08T03:03:39.969Z,147344.28
2023-05-08T03:04:51.475Z,147322.50
2023-05-08T03:05:59.880Z,147332.16
2023-05-08T03:07:04.308Z,147303.13
2023-05-08T03:08:14.471Z,147327.31
2023-05-08T03:09:20.676Z,147320.06
2023-05-08T03:10:29.539Z,147303.13
2023-05-08T03:11:39.128Z,147288.63
2023-05-08T03:12:46.068Z,147281.38
2023-05-08T03:13:49.485Z,147254.78
2023-05-08T03:16:02.925Z,147271.69
2023-05-08T03:17:08.731Z,147270.47
2023-05-08T03:18:20.285Z,147288.63
2023-05-08T03:19:30.038Z,147278.97
2023-05-08T03:20:37.334Z,147259.59
2023-05-08T03:21:43.091Z,147262.03
2023-05-08T03:22:48.296Z,147242.72
2023-05-08T03:23:53.181Z,147251.16
2023-05-08T03:24:56.595Z,147248.75
2023-05-08T03:26:01.010Z,147236.63
2023-05-08T03:27:04.619Z,147216.09
2023-05-08T03:28:07.625Z,147235.41
2023-05-08T03:29:13.048Z,147242.72
2023-05-08T03:30:16.947Z,147233.00
2023-05-08T03:31:25.122Z,147237.84
2023-05-08T03:32:28.865Z,147223.34
2023-05-08T03:33:32.695Z,147225.75
2023-05-08T03:34:36.063Z,147230.59
2023-05-08T03:35:39.438Z,147223.34
2023-05-08T03:36:43.272Z,147216.09
2023-05-08T03:37:45.785Z,147211.28
2023-05-08T03:38:48.923Z,147203.97
2023-05-08T03:39:52.005Z,147203.97
2023-05-08T03:40:54.337Z,147183.47
2023-05-08T03:41:56.911Z,147203.97
2023-05-08T03:43:01.055Z,147231.78
2023-05-08T03:44:03.667Z,147205.19
2023-05-08T03:45:07.041Z,147216.09
2023-05-08T03:46:10.387Z,147213.69
2023-05-08T03:47:12.806Z,147200.38
2023-05-08T03:48:16.442Z,147201.56
2023-05-08T03:49:20.024Z,147187.09
2023-05-08T03:50:22.763Z,147202.78
2023-05-08T03:51:25.407Z,147194.31
2023-05-08T03:52:27.604Z,147189.50
2023-05-08T03:53:31.597Z,147206.41
2023-05-08T03:54:33.829Z,147202.78
2023-05-08T03:55:36.601Z,147207.59
2023-05-08T03:56:40.973Z,147195.53
2023-05-08T03:57:55.452Z,147216.09
2023-05-08T03:59:07.377Z,147233.00
2023-05-08T04:00:22.109Z,147237.84
2023-05-08T04:01:44.238Z,147245.13
2023-05-08T04:03:02.763Z,147249.94
2023-05-08T04:04:16.367Z,147225.75
2023-05-08T04:06:35.701Z,147216.09
2023-05-08T04:07:53.588Z,147217.31
2023-05-08T04:09:08.082Z,147226.97
2023-05-08T04:10:21.697Z,147223.34
2023-05-08T04:11:35.667Z,147213.69
2023-05-08T04:12:40.894Z,147210.06
2023-05-08T04:13:50.599Z,147206.41
2023-05-08T04:15:16.010Z,147201.56
2023-05-08T04:16:25.401Z,147219.72
2023-05-08T04:17:45.028Z,147237.84
2023-05-08T04:19:47.230Z,147233.00
2023-05-08T04:20:53.713Z,147211.28
2023-05-08T04:21:59.153Z,147206.41
2023-05-08T04:23:03.822Z,147194.31
2023-05-08T04:24:10.111Z,147203.97
2023-05-08T04:25:15.306Z,147189.50
2023-05-08T04:26:19.007Z,147201.56
2023-05-08T04:27:24.272Z,147189.50
2023-05-08T04:28:26.702Z,147167.72
2023-05-08T04:29:30.072Z,147189.50
2023-05-08T04:30:33.229Z,147195.53
2023-05-08T04:31:37.282Z,147213.69
2023-05-08T04:32:41.835Z,147191.91
2023-05-08T04:33:45.893Z,147187.09
2023-05-08T04:34:48.408Z,147211.28
2023-05-08T04:35:51.406Z,147223.34
2023-05-08T04:36:54.648Z,147217.31
2023-05-08T04:37:59.341Z,147234.22
2023-05-08T04:39:01.515Z,147203.97
2023-05-08T04:40:07.510Z,147208.84
2023-05-08T04:41:09.995Z,147239.03
2023-05-08T04:42:12.408Z,147225.75
2023-05-08T04:43:14.845Z,147220.94
2023-05-08T04:44:17.352Z,147233.00
2023-05-08T04:46:14.145Z,147230.59
2023-05-08T04:47:16.484Z,147245.13
2023-05-08T04:48:19.013Z,147237.84
2023-05-08T04:49:21.241Z,147240.25
2023-05-08T04:50:23.549Z,147225.75
2023-05-08T04:51:26.293Z,147243.91
2023-05-08T04:52:28.475Z,147263.22
2023-05-08T04:53:30.726Z,147254.78
2023-05-08T04:54:32.876Z,147254.78
2023-05-08T04:55:35.047Z,147265.63
2023-05-08T04:56:37.643Z,147269.25
2023-05-08T04:57:40.030Z,147237.84
2023-05-08T04:58:42.963Z,147270.47
2023-05-08T04:59:45.799Z,147274.13
2023-05-08T05:00:47.984Z,147305.53
2023-05-08T05:01:50.533Z,147308.00
2023-05-08T05:02:52.910Z,147295.88
2023-05-08T05:03:56.182Z,147293.47
2023-05-08T05:04:58.906Z,147301.91
2023-05-08T05:06:01.881Z,147311.63
2023-05-08T05:07:04.564Z,147295.88
2023-05-08T05:08:07.248Z,147293.47
2023-05-08T05:09:10.213Z,147281.38
2023-05-08T05:10:12.474Z,147275.34
2023-05-08T05:11:14.654Z,147293.47
2023-05-08T05:12:16.973Z,147303.13
2023-05-08T05:13:19.967Z,147310.41
2023-05-08T05:14:22.259Z,147310.41
2023-05-08T05:15:24.524Z,147283.81
2023-05-08T05:16:27.410Z,147293.47
2023-05-08T05:17:31.347Z,147291.03
2023-05-08T05:18:34.073Z,147287.41
2023-05-08T05:19:36.279Z,147312.81
2023-05-08T05:20:38.833Z,147316.44
2023-05-08T05:21:41.104Z,147324.91
2023-05-08T05:22:43.504Z,147327.31
2023-05-08T05:23:45.985Z,147312.81
2023-05-08T05:24:48.129Z,147326.09
2023-05-08T05:25:50.338Z,147357.56
2023-05-08T05:26:52.557Z,147367.22
2023-05-08T05:27:54.773Z,147395.03
2023-05-08T05:28:57.120Z,147401.06
2023-05-08T05:29:59.293Z,147399.88
2023-05-08T05:31:02.242Z,147431.31
2023-05-08T05:32:07.108Z,147433.72
2023-05-08T05:33:09.476Z,147437.41
2023-05-08T05:34:12.578Z,147381.75
2023-05-08T05:35:15.446Z,147366.00
2023-05-08T05:36:17.910Z,147378.13
2023-05-08T05:37:20.108Z,147407.16
2023-05-08T05:38:22.558Z,147396.25
2023-05-08T05:39:24.785Z,147412.00
2023-05-08T05:40:26.964Z,147412.00
2023-05-08T05:41:29.196Z,147448.28
2023-05-08T05:42:31.575Z,147479.72
2023-05-08T05:43:34.190Z,147484.56
2023-05-08T05:44:37.395Z,147511.19
2023-05-08T05:45:40.134Z,147506.34
2023-05-08T05:46:44.237Z,147489.41
2023-05-08T05:47:50.049Z,147500.28
2023-05-08T05:48:54.032Z,147508.78
2023-05-08T05:49:57.761Z,147548.69
2023-05-08T05:51:00.949Z,147546.28
2023-05-08T05:52:03.334Z,147566.88
2023-05-08T05:53:05.636Z,147551.16
2023-05-08T05:54:07.820Z,147564.44
2023-05-08T05:55:10.500Z,147542.66
2023-05-08T05:56:12.712Z,147566.88
2023-05-08T05:57:14.966Z,147592.28
2023-05-08T05:58:17.812Z,147612.88
2023-05-08T05:59:20.005Z,147670.97
2023-05-08T06:00:22.409Z,147701.25
2023-05-08T06:01:29.197Z,147736.34
2023-05-08T06:02:33.939Z,147741.19
2023-05-08T06:03:36.360Z,147799.31
2023-05-08T06:04:39.040Z,147840.47
2023-05-08T06:05:42.624Z,147947.09
2023-05-08T06:06:44.800Z,148073.13
2023-05-08T06:07:47.022Z,148116.72
2023-05-08T06:08:49.183Z,148240.38
2023-05-08T06:09:53.371Z,148332.59
2023-05-08T06:10:55.564Z,148387.19
2023-05-08T06:11:58.092Z,148452.69
2023-05-08T06:13:00.592Z,148526.69
2023-05-08T06:14:03.232Z,148504.81
2023-05-08T06:15:06.223Z,148526.69
2023-05-08T06:16:08.640Z,148526.69
2023-05-08T06:17:11.043Z,148565.53
2023-05-08T06:18:13.472Z,148555.81
2023-05-08T06:19:15.824Z,148560.69
2023-05-08T06:20:18.372Z,148550.97
2023-05-08T06:21:20.526Z,148441.75
2023-05-08T06:22:24.448Z,148466.00
2023-05-08T06:23:27.088Z,148452.69
2023-05-08T06:24:29.567Z,148457.53
2023-05-08T06:25:31.882Z,148436.91
2023-05-08T06:26:34.442Z,148574.03
2023-05-08T06:27:37.074Z,148678.44
2023-05-08T06:28:39.260Z,148774.31
2023-05-08T06:29:41.411Z,148881.25
2023-05-08T06:30:43.556Z,148866.66
2023-05-08T06:31:45.831Z,148813.19
2023-05-08T06:32:48.006Z,148810.78
2023-05-08T06:33:50.147Z,148876.41
2023-05-08T06:34:52.351Z,149005.16
2023-05-08T06:35:54.495Z,149104.84
2023-05-08T06:36:56.635Z,149119.41
2023-05-08T06:37:58.746Z,149087.75
2023-05-08T06:39:00.913Z,149109.69
2023-05-08T06:40:12.039Z,149138.88
2023-05-08T06:41:15.526Z,149121.81
2023-05-08T06:42:17.766Z,149159.50
2023-05-08T06:43:21.776Z,149267.72
2023-05-08T06:44:23.944Z,149219.06
2023-05-08T06:45:26.180Z,149369.88
2023-05-08T06:46:29.909Z,149457.41
2023-05-08T06:47:32.211Z,149338.28
2023-05-08T06:48:34.563Z,149425.78
2023-05-08T06:49:37.079Z,149229.97
2023-05-08T06:50:39.627Z,149175.31
2023-05-08T06:51:41.868Z,148994.19
2023-05-08T06:52:44.086Z,149219.06
2023-05-08T06:53:46.245Z,149192.31
2023-05-08T06:54:48.418Z,149317.53
2023-05-08T06:55:51.568Z,149219.06
2023-05-08T06:56:56.715Z,149041.59
2023-05-08T06:57:58.901Z,149075.63
2023-05-08T06:59:08.261Z,149119.41
2023-05-08T07:00:11.982Z,149107.25
2023-05-08T07:01:15.074Z,149240.97
2023-05-08T07:02:17.285Z,149467.19
2023-05-08T07:03:19.434Z,149361.34
2023-05-08T07:04:21.722Z,149621.69
2023-05-08T07:05:24.041Z,149700.84
2023-05-08T07:06:27.645Z,149473.25
2023-05-08T07:07:29.798Z,149429.44
2023-05-08T07:08:32.400Z,149491.47
2023-05-08T07:09:34.645Z,149549.88
2023-05-08T07:10:37.142Z,149469.63
2023-05-08T07:11:39.320Z,149503.66
2023-05-08T07:12:41.567Z,149661.91
2023-05-08T07:13:46.042Z,149804.34
2023-05-08T07:14:48.205Z,149730.03
2023-05-08T07:15:50.476Z,149851.78
2023-05-08T07:16:52.677Z,149900.53
2023-05-08T07:17:54.917Z,149825.03
2023-05-08T07:18:57.331Z,149712.97
2023-05-08T07:19:59.460Z,149731.25
2023-05-08T07:21:01.628Z,149717.84
2023-05-08T07:22:04.867Z,149739.78
2023-05-08T07:23:07.451Z,149697.19
2023-05-08T07:24:09.715Z,149730.03
2023-05-08T07:25:12.779Z,149778.75
2023-05-08T07:26:15.117Z,149772.63
2023-05-08T07:27:17.366Z,149798.25
2023-05-08T07:28:19.544Z,149861.56
2023-05-08T07:29:21.713Z,149878.59
2023-05-08T07:30:24.000Z,149932.19
2023-05-08T07:31:26.478Z,150021.09
2023-05-08T07:32:30.514Z,150056.47
2023-05-08T07:33:33.955Z,150068.63
2023-05-08T07:34:36.207Z,150222.22
2023-05-08T07:35:41.569Z,150329.44
2023-05-08T07:36:43.890Z,150295.31
2023-05-08T07:37:46.023Z,150268.50
2023-05-08T07:38:48.159Z,150094.22
2023-05-08T07:39:50.415Z,150017.44
2023-05-08T07:40:57.091Z,149990.69
2023-05-08T07:41:59.380Z,150017.44
2023-05-08T07:43:01.567Z,149971.13
2023-05-08T07:44:03.777Z,149860.34
2023-05-08T07:45:07.006Z,149939.47
2023-05-08T07:46:09.282Z,149957.75
2023-05-08T07:47:11.553Z,150114.91
2023-05-08T07:48:13.879Z,150039.38
2023-05-08T07:49:16.060Z,150002.84
2023-05-08T07:50:18.958Z,150010.16
2023-05-08T07:51:21.096Z,149945.56
2023-05-08T07:52:23.482Z,150054.00
2023-05-08T07:53:25.616Z,150183.13
2023-05-08T07:54:27.748Z,150197.81
2023-05-08T07:55:29.903Z,150119.81
2023-05-08T07:56:32.058Z,150188.09
2023-05-08T07:57:41.807Z,150225.84
2023-05-08T07:58:45.946Z,150234.38
2023-05-08T07:59:48.090Z,150044.25
2023-05-08T08:00:50.206Z,150078.34
2023-05-08T08:01:52.574Z,149806.75
2023-05-08T08:02:54.950Z,149637.53
2023-05-08T08:03:57.448Z,149437.97
2023-05-08T08:04:59.679Z,149459.84
2023-05-08T08:06:01.849Z,149482.97
2023-05-08T08:07:04.017Z,149577.91
2023-05-08T08:08:06.211Z,149608.34
2023-05-08T08:09:08.559Z,149566.97
2023-05-08T08:10:10.798Z,149659.41
2023-05-08T08:11:12.990Z,149681.34
2023-05-08T08:12:15.639Z,149853.00
2023-05-08T08:13:17.928Z,149935.81
2023-05-08T08:14:20.140Z,150054.00
2023-05-08T08:15:22.332Z,150222.22
2023-05-08T08:16:24.551Z,149917.53
2023-05-08T08:17:28.714Z,150061.34
2023-05-08T08:18:35.678Z,150083.22
2023-05-08T08:19:37.836Z,150018.66
2023-05-08T08:20:40.290Z,149710.56
2023-05-08T08:21:43.819Z,149717.84
2023-05-08T08:22:46.049Z,149525.53
2023-05-08T08:23:48.175Z,149630.25
2023-05-08T08:24:51.900Z,149669.19
2023-05-08T08:25:56.351Z,149932.19
2023-05-08T08:26:58.600Z,150071.06
2023-05-08T08:28:01.002Z,149948.00
2023-05-08T08:29:03.184Z,149751.91
2023-05-08T08:30:16.261Z,149846.94
2023-05-08T08:31:20.116Z,149924.88
2023-05-08T08:32:22.430Z,149934.63
2023-05-08T08:33:24.640Z,150180.69
2023-05-08T08:34:26.809Z,150297.75
2023-05-08T08:35:30.170Z,150416.06
2023-05-08T08:36:32.648Z,150508.69
2023-05-08T08:37:34.873Z,150590.47
2023-05-08T08:38:37.547Z,150751.53
2023-05-08T08:39:39.760Z,150630.69
2023-05-08T08:40:42.403Z,150920.00
2023-05-08T08:41:44.628Z,151165.41
2023-05-08T08:42:47.282Z,151291.28
2023-05-08T08:43:49.463Z,151277.84
2023-05-08T08:44:51.719Z,151512.50
2023-05-08T08:45:53.911Z,151387.78
2023-05-08T08:46:58.598Z,151362.13
2023-05-08T08:48:02.340Z,151283.94
2023-05-08T08:49:05.420Z,151210.63
2023-05-08T08:50:12.049Z,151246.03
2023-05-08T08:51:28.426Z,151112.94
2023-05-08T08:52:48.785Z,150912.63
2023-05-08T08:54:02.376Z,150799.09
2023-05-08T08:55:08.112Z,150734.38
2023-05-08T08:56:11.679Z,150670.94
2023-05-08T08:57:15.054Z,150633.16
2023-05-08T08:58:39.013Z,150714.91
2023-05-08T08:59:43.217Z,150595.34
2023-05-08T09:00:47.452Z,150574.59
2023-05-08T09:01:56.871Z,150644.09
2023-05-08T09:02:59.630Z,150563.59
2023-05-08T09:04:02.778Z,150401.41
2023-05-08T09:05:06.116Z,150298.97
2023-05-08T09:06:08.790Z,150305.06
2023-05-08T09:07:12.034Z,150385.56
2023-05-08T09:08:14.275Z,150448.97
2023-05-08T09:09:16.498Z,150575.81
2023-05-08T09:10:18.752Z,150780.81
2023-05-08T09:11:21.236Z,150949.28
2023-05-08T09:12:23.445Z,150961.47
2023-05-08T09:13:26.323Z,151050.59
2023-05-08T09:14:28.762Z,151161.75
2023-05-08T09:15:34.984Z,151123.91
2023-05-08T09:16:37.762Z,151082.34
2023-05-08T09:17:39.995Z,150873.53
2023-05-08T09:18:42.203Z,150968.78
2023-05-08T09:19:44.958Z,150983.47
2023-05-08T09:21:46.314Z,151015.22
2023-05-08T09:22:49.011Z,151210.63
2023-05-08T09:23:59.586Z,151071.34
2023-05-08T09:25:03.283Z,150755.19
2023-05-08T09:26:05.634Z,150896.75
2023-05-08T09:27:21.310Z,151000.53
2023-05-08T09:28:25.373Z,150941.97
2023-05-08T09:29:27.488Z,150913.84
2023-05-08T09:30:29.655Z,150880.91
2023-05-08T09:31:39.908Z,150929.75
2023-05-08T09:32:44.332Z,151098.25
2023-05-08T09:33:46.523Z,151139.81
2023-05-08T09:34:52.777Z,150883.34
2023-05-08T09:35:58.183Z,150854.03
2023-05-08T09:37:06.266Z,151027.41
2023-05-08T09:38:08.393Z,151159.31
2023-05-08T09:39:12.639Z,151271.75
2023-05-08T09:40:22.483Z,151115.38
2023-05-08T09:41:24.797Z,150944.41
2023-05-08T09:42:38.053Z,151005.41
2023-05-08T09:43:40.384Z,150908.97
2023-05-08T09:44:48.205Z,151017.66
2023-05-08T09:45:50.418Z,150912.63
2023-05-08T09:46:53.900Z,151139.81
2023-05-08T09:47:56.186Z,151194.72
2023-05-08T09:49:00.721Z,151144.69
2023-05-08T09:50:06.992Z,151114.16
2023-05-08T09:52:08.550Z,151202.03
2023-05-08T09:53:10.924Z,151239.94
2023-05-08T09:54:18.267Z,151412.28
2023-05-08T09:55:20.503Z,151401.22
2023-05-08T09:56:39.391Z,151497.78
2023-05-08T09:57:56.960Z,151357.25
2023-05-08T09:58:59.225Z,151327.91
2023-05-08T10:00:09.896Z,151137.31
2023-05-08T10:01:34.938Z,151358.47
2023-05-08T10:02:38.426Z,151312.06
2023-05-08T10:03:48.251Z,151362.13
2023-05-08T10:04:50.631Z,151314.50
2023-05-08T10:05:52.867Z,151117.81
2023-05-08T10:06:58.907Z,151130.00
2023-05-08T10:08:22.372Z,151089.72
2023-05-08T10:09:26.094Z,151266.81
2023-05-08T10:10:30.987Z,151351.13
2023-05-08T10:11:33.247Z,151353.59
2023-05-08T10:12:37.859Z,151563.78
2023-05-08T10:13:40.123Z,151422.03
2023-05-08T10:14:43.655Z,151420.81
2023-05-08T10:15:52.880Z,151485.59
2023-05-08T10:16:55.307Z,151384.13
2023-05-08T10:18:08.782Z,151528.34
2023-05-08T10:19:14.391Z,151607.88
2023-05-08T10:20:21.340Z,151665.28
2023-05-08T10:21:25.952Z,151540.59
2023-05-08T10:22:29.549Z,151684.88
2023-05-08T10:23:34.154Z,151440.41
2023-05-08T10:24:41.353Z,151261.94
2023-05-08T10:25:45.904Z,151413.50
2023-05-08T10:27:09.719Z,151746.06
2023-05-08T10:28:51.134Z,151492.91
2023-05-08T10:30:01.544Z,151616.41
2023-05-08T10:31:05.618Z,151780.31
2023-05-08T10:32:10.525Z,151880.63
2023-05-08T10:33:15.344Z,151826.75
2023-05-08T10:34:22.350Z,152018.88
2023-05-08T10:35:25.449Z,152082.50
2023-05-08T10:36:30.918Z,152042.16
2023-05-08T10:37:36.075Z,152141.25
2023-05-08T10:38:39.570Z,151906.31
2023-05-08T10:39:44.409Z,151995.63
2023-05-08T10:40:48.122Z,152044.59
2023-05-08T10:41:50.481Z,152010.28
2023-05-08T10:44:12.504Z,152228.22
2023-05-08T10:45:15.138Z,152056.81
2023-05-08T10:46:40.834Z,151832.91
2023-05-08T10:47:57.947Z,151799.88
2023-05-08T10:49:26.685Z,151682.44
2023-05-08T10:50:53.059Z,151818.19
2023-05-08T10:52:18.675Z,151579.75
2023-05-08T10:53:31.525Z,151442.84
2023-05-08T10:54:39.803Z,151623.75
2023-05-08T10:55:45.203Z,151802.31
2023-05-08T10:56:48.914Z,151684.88
2023-05-08T10:58:11.606Z,151711.78
2023-05-08T10:59:21.251Z,151744.84
2023-05-08T11:00:23.542Z,151613.97
2023-05-08T11:01:26.509Z,151325.47
2023-05-08T11:02:31.509Z,151362.13
2023-05-08T11:03:42.924Z,151657.97
2023-05-08T11:04:45.264Z,151627.41
2023-05-08T11:05:49.362Z,151704.47
2023-05-08T11:06:54.260Z,151775.41
2023-05-08T11:07:57.998Z,151623.75
2023-05-08T11:09:00.977Z,151765.66
2023-05-08T11:10:14.116Z,152022.56
2023-05-08T11:11:23.962Z,151924.66
2023-05-08T11:12:27.880Z,151908.75
2023-05-08T11:13:36.119Z,152148.59
2023-05-08T11:14:42.479Z,152193.94
2023-05-08T11:15:50.777Z,152245.31
2023-05-08T11:17:02.142Z,152262.50
2023-05-08T11:18:06.593Z,152284.50
2023-05-08T11:19:19.766Z,152245.31
2023-05-08T11:20:38.877Z,152056.81
2023-05-08T11:22:19.299Z,151990.69
2023-05-08T11:23:22.920Z,151779.06
2023-05-08T11:24:35.998Z,151786.41
2023-05-08T11:25:43.736Z,152060.47
2023-05-08T11:26:49.060Z,151830.41
2023-05-08T11:27:51.359Z,151911.22
2023-05-08T11:28:53.523Z,152065.41
2023-05-08T11:30:22.039Z,152061.75
2023-05-08T11:31:24.682Z,152021.34
2023-05-08T11:33:11.541Z,152154.69
2023-05-08T11:34:41.323Z,152135.16
2023-05-08T11:35:51.002Z,152152.25
2023-05-08T11:37:02.530Z,152201.28
2023-05-08T11:38:18.622Z,151783.97
2023-05-08T11:39:20.838Z,151583.41
2023-05-08T11:40:45.566Z,151786.41
2023-05-08T11:41:48.006Z,151623.75
2023-05-08T11:42:50.911Z,151638.44
2023-05-08T11:44:07.765Z,151812.09
2023-05-08T11:45:13.822Z,151846.34
2023-05-08T11:46:19.365Z,152006.63
2023-05-08T11:47:22.276Z,151941.78
2023-05-08T11:48:24.860Z,151928.31
2023-05-08T11:49:29.710Z,151914.88
2023-05-08T11:50:36.079Z,151989.47
2023-05-08T11:51:39.176Z,151956.44
2023-05-08T11:52:43.006Z,151988.25
2023-05-08T11:53:45.703Z,152038.47
2023-05-08T11:54:47.930Z,152078.84
2023-05-08T11:55:52.374Z,152122.88
2023-05-08T11:56:57.540Z,152083.75
2023-05-08T11:57:59.696Z,152011.50
2023-05-08T11:59:06.314Z,151836.56
2023-05-08T12:00:12.789Z,151856.09
2023-05-08T12:01:21.001Z,151489.25
2023-05-08T12:02:40.163Z,151623.75
2023-05-08T12:03:42.602Z,151642.09
2023-05-08T12:04:46.672Z,151683.66
2023-05-08T12:05:50.450Z,151692.19
2023-05-08T12:06:57.887Z,151836.56
2023-05-08T12:08:00.111Z,151721.59
2023-05-08T12:09:04.884Z,151868.38
2023-05-08T12:10:07.773Z,151765.66
2023-05-08T12:11:10.002Z,151929.53
2023-05-08T12:12:12.213Z,151837.78
2023-05-08T12:13:25.165Z,151927.09
2023-05-08T12:14:27.540Z,151913.66
2023-05-08T12:15:29.800Z,151878.19
2023-05-08T12:16:35.614Z,151616.41
2023-05-08T12:17:38.257Z,151721.59
2023-05-08T12:18:42.128Z,151826.75
2023-05-08T12:19:44.562Z,151848.78
2023-05-08T12:21:50.259Z,151801.09
2023-05-08T12:22:53.547Z,151829.19
2023-05-08T12:23:58.671Z,151591.97
2023-05-08T12:25:02.989Z,151616.41
2023-05-08T12:26:05.161Z,151650.66
2023-05-08T12:27:07.559Z,151609.09
2023-05-08T12:28:10.418Z,151643.31
2023-05-08T12:29:12.553Z,151693.41
2023-05-08T12:30:15.312Z,151678.78
2023-05-08T12:31:17.848Z,151726.47
2023-05-08T12:32:20.343Z,151623.75
2023-05-08T12:33:23.297Z,151697.09
2023-05-08T12:34:25.611Z,151651.88
2023-05-08T12:35:28.090Z,151404.91
2023-05-08T12:36:34.193Z,151453.81
2023-05-08T12:37:36.699Z,151596.84
2023-05-08T12:42:16.902Z,151864.69
2023-05-08T12:43:19.238Z,151629.84